sensor_id;sensor_type;location;lat;lon;timestamp;temperature;humidity
18225;DHT22;9237;48.590;8.854;2024-03-08T00:01:32;2.00;99.90
18225;DHT22;9237;48.590;8.854;2024-03-08T00:03:59;1.90;99.90
18225;DHT22;9237;48.590;8.854;2024-03-08T00:06:26;1.80;99.90
18225;DHT22;9237;48.590;8.854;2024-03-08T00:08:53;1.70;99.90
18225;DHT22;9237;48.590;8.854;2024-03-08T00:11:20;1.60;99.90
18225;DHT22;9237;48.590;8.854;2024-03-08T00:13:47;1.60;99.90
18225;DHT22;9237;48.590;8.854;2024-03-08T00:16:13;1.60;99.90
18225;DHT22;9237;48.590;8.854;2024-03-08T00:18:42;2.00;99.90
18225;DHT22;9237;48.590;8.854;2024-03-08T00:21:08;1.40;99.90
18225;DHT22;9237;48.590;8.854;2024-03-08T00:23:35;1.40;99.90
18225;DHT22;9237;48.590;8.854;2024-03-08T00:26:02;1.40;99.90
18225;DHT22;9237;48.590;8.854;2024-03-08T00:28:30;1.40;99.90
18225;DHT22;9237;48.590;8.854;2024-03-08T00:30:57;1.40;99.90
18225;DHT22;9237;48.590;8.854;2024-03-08T00:33:23;1.50;99.90
18225;DHT22;9237;48.590;8.854;2024-03-08T00:35:52;1.60;99.90
18225;DHT22;9237;48.590;8.854;2024-03-08T00:38:18;1.50;99.90
18225;DHT22;9237;48.590;8.854;2024-03-08T00:40:45;1.60;99.90
18225;DHT22;9237;48.590;8.854;2024-03-08T00:43:12;1.60;99.90
18225;DHT22;9237;48.590;8.854;2024-03-08T00:45:39;1.50;99.90
18225;DHT22;9237;48.590;8.854;2024-03-08T00:48:08;1.40;99.90
18225;DHT22;9237;48.590;8.854;2024-03-08T00:50:34;1.30;99.90
18225;DHT22;9237;48.590;8.854;2024-03-08T00:53:03;1.20;99.90
18225;DHT22;9237;48.590;8.854;2024-03-08T00:55:30;1.00;99.90
18225;DHT22;9237;48.590;8.854;2024-03-08T00:57:57;0.90;99.90
18225;DHT22;9237;48.590;8.854;2024-03-08T01:00:23;0.70;99.90
18225;DHT22;9237;48.590;8.854;2024-03-08T01:02:51;0.70;99.90
18225;DHT22;9237;48.590;8.854;2024-03-08T01:05:17;0.50;99.90
18225;DHT22;9237;48.590;8.854;2024-03-08T01:07:44;0.40;99.90
18225;DHT22;9237;48.590;8.854;2024-03-08T01:10:13;0.30;99.90
18225;DHT22;9237;48.590;8.854;2024-03-08T01:12:40;0.30;99.90
18225;DHT22;9237;48.590;8.854;2024-03-08T01:15:09;0.30;99.90
18225;DHT22;9237;48.590;8.854;2024-03-08T01:17:36;0.30;99.90
18225;DHT22;9237;48.590;8.854;2024-03-08T01:20:04;0.20;99.90
18225;DHT22;9237;48.590;8.854;2024-03-08T01:22:31;0.30;99.90
18225;DHT22;9237;48.590;8.854;2024-03-08T01:24:58;0.30;99.90
18225;DHT22;9237;48.590;8.854;2024-03-08T01:27:26;0.30;99.90
18225;DHT22;9237;48.590;8.854;2024-03-08T01:29:53;0.30;99.90
18225;DHT22;9237;48.590;8.854;2024-03-08T01:32:19;0.10;99.90
18225;DHT22;9237;48.590;8.854;2024-03-08T01:34:48;0.10;99.90
18225;DHT22;9237;48.590;8.854;2024-03-08T01:37:15;0.00;99.90
18225;DHT22;9237;48.590;8.854;2024-03-08T01:39:42;0.00;99.90
18225;DHT22;9237;48.590;8.854;2024-03-08T01:42:08;-0.10;99.90
18225;DHT22;9237;48.590;8.854;2024-03-08T01:44:39;-0.20;99.90
18225;DHT22;9237;48.590;8.854;2024-03-08T01:47:06;-0.20;99.90
18225;DHT22;9237;48.590;8.854;2024-03-08T01:49:33;-0.20;99.90
18225;DHT22;9237;48.590;8.854;2024-03-08T01:52:00;-0.10;99.90
18225;DHT22;9237;48.590;8.854;2024-03-08T01:54:27;0.00;99.90
18225;DHT22;9237;48.590;8.854;2024-03-08T01:56:56;0.10;99.90
18225;DHT22;9237;48.590;8.854;2024-03-08T01:59:24;0.10;99.90
18225;DHT22;9237;48.590;8.854;2024-03-08T02:01:55;0.10;99.90
18225;DHT22;9237;48.590;8.854;2024-03-08T02:04:22;0.20;99.90
18225;DHT22;9237;48.590;8.854;2024-03-08T02:06:49;0.20;99.90
18225;DHT22;9237;48.590;8.854;2024-03-08T02:09:17;0.20;99.90
18225;DHT22;9237;48.590;8.854;2024-03-08T02:11:44;0.20;99.90
18225;DHT22;9237;48.590;8.854;2024-03-08T02:14:11;0.20;99.90
18225;DHT22;9237;48.590;8.854;2024-03-08T02:16:38;0.20;99.90
18225;DHT22;9237;48.590;8.854;2024-03-08T02:19:06;0.10;99.90
18225;DHT22;9237;48.590;8.854;2024-03-08T02:21:36;0.00;99.90
18225;DHT22;9237;48.590;8.854;2024-03-08T02:24:04;0.00;99.90
18225;DHT22;9237;48.590;8.854;2024-03-08T02:26:31;0.00;99.90
18225;DHT22;9237;48.590;8.854;2024-03-08T02:28:58;-0.10;99.90
18225;DHT22;9237;48.590;8.854;2024-03-08T02:31:24;0.00;99.90
18225;DHT22;9237;48.590;8.854;2024-03-08T02:33:51;0.00;99.90
18225;DHT22;9237;48.590;8.854;2024-03-08T02:36:18;0.10;99.90
18225;DHT22;9237;48.590;8.854;2024-03-08T02:38:46;0.10;99.90
18225;DHT22;9237;48.590;8.854;2024-03-08T02:41:13;0.10;99.90
18225;DHT22;9237;48.590;8.854;2024-03-08T02:43:39;0.20;99.90
18225;DHT22;9237;48.590;8.854;2024-03-08T02:46:06;0.10;99.90
18225;DHT22;9237;48.590;8.854;2024-03-08T02:48:33;0.20;99.90
18225;DHT22;9237;48.590;8.854;2024-03-08T02:51:00;0.10;99.90
18225;DHT22;9237;48.590;8.854;2024-03-08T02:53:28;0.10;99.90
18225;DHT22;9237;48.590;8.854;2024-03-08T02:55:57;0.10;99.90
18225;DHT22;9237;48.590;8.854;2024-03-08T02:58:23;0.20;99.90
18225;DHT22;9237;48.590;8.854;2024-03-08T03:00:50;0.20;99.90
18225;DHT22;9237;48.590;8.854;2024-03-08T03:03:17;0.10;99.90
18225;DHT22;9237;48.590;8.854;2024-03-08T03:05:43;0.00;99.90
18225;DHT22;9237;48.590;8.854;2024-03-08T03:08:10;0.00;99.90
18225;DHT22;9237;48.590;8.854;2024-03-08T03:10:38;0.00;99.90
18225;DHT22;9237;48.590;8.854;2024-03-08T03:13:06;0.00;99.90
18225;DHT22;9237;48.590;8.854;2024-03-08T03:15:33;-0.10;99.90
18225;DHT22;9237;48.590;8.854;2024-03-08T03:18:00;-0.10;99.90
18225;DHT22;9237;48.590;8.854;2024-03-08T03:20:27;-0.10;99.90
18225;DHT22;9237;48.590;8.854;2024-03-08T03:22:58;-0.10;99.90
18225;DHT22;9237;48.590;8.854;2024-03-08T03:25:27;0.00;99.90
18225;DHT22;9237;48.590;8.854;2024-03-08T03:27:59;0.00;99.90
18225;DHT22;9237;48.590;8.854;2024-03-08T03:30:27;0.00;99.90
18225;DHT22;9237;48.590;8.854;2024-03-08T03:32:58;0.00;99.90
18225;DHT22;9237;48.590;8.854;2024-03-08T03:35:26;0.00;99.90
18225;DHT22;9237;48.590;8.854;2024-03-08T03:37:53;-0.10;99.90
18225;DHT22;9237;48.590;8.854;2024-03-08T03:40:28;-0.10;99.90
18225;DHT22;9237;48.590;8.854;2024-03-08T03:42:55;-0.20;99.90
18225;DHT22;9237;48.590;8.854;2024-03-08T03:45:21;-0.30;99.90
18225;DHT22;9237;48.590;8.854;2024-03-08T03:47:50;-0.40;99.90
18225;DHT22;9237;48.590;8.854;2024-03-08T03:50:17;-0.30;99.90
18225;DHT22;9237;48.590;8.854;2024-03-08T03:52:44;-0.20;99.90
18225;DHT22;9237;48.590;8.854;2024-03-08T03:55:12;-0.20;99.90
18225;DHT22;9237;48.590;8.854;2024-03-08T03:57:39;-0.20;99.90
18225;DHT22;9237;48.590;8.854;2024-03-08T04:00:07;-0.20;99.90
18225;DHT22;9237;48.590;8.854;2024-03-08T04:02:36;-0.20;99.90
18225;DHT22;9237;48.590;8.854;2024-03-08T04:05:06;-0.30;99.90
18225;DHT22;9237;48.590;8.854;2024-03-08T04:07:33;-0.50;99.90
18225;DHT22;9237;48.590;8.854;2024-03-08T04:10:00;-0.50;99.90
18225;DHT22;9237;48.590;8.854;2024-03-08T04:12:27;-0.60;99.90
18225;DHT22;9237;48.590;8.854;2024-03-08T04:14:55;-0.60;99.90
18225;DHT22;9237;48.590;8.854;2024-03-08T04:17:22;-0.60;99.90
18225;DHT22;9237;48.590;8.854;2024-03-08T04:19:49;-0.60;99.90
18225;DHT22;9237;48.590;8.854;2024-03-08T04:22:17;-0.70;99.90
18225;DHT22;9237;48.590;8.854;2024-03-08T04:24:44;-0.90;99.90
18225;DHT22;9237;48.590;8.854;2024-03-08T04:27:11;-0.90;99.90
18225;DHT22;9237;48.590;8.854;2024-03-08T04:29:38;-1.10;99.90
18225;DHT22;9237;48.590;8.854;2024-03-08T04:32:06;-1.30;99.90
18225;DHT22;9237;48.590;8.854;2024-03-08T04:34:34;-1.30;99.90
18225;DHT22;9237;48.590;8.854;2024-03-08T04:37:01;-1.30;99.90
18225;DHT22;9237;48.590;8.854;2024-03-08T04:39:31;-1.30;99.90
18225;DHT22;9237;48.590;8.854;2024-03-08T04:42:00;-1.30;99.90
18225;DHT22;9237;48.590;8.854;2024-03-08T04:44:29;-1.30;99.90
18225;DHT22;9237;48.590;8.854;2024-03-08T04:46:56;-1.40;99.90
18225;DHT22;9237;48.590;8.854;2024-03-08T04:49:23;-1.50;99.90
18225;DHT22;9237;48.590;8.854;2024-03-08T04:51:50;-1.60;99.90
18225;DHT22;9237;48.590;8.854;2024-03-08T04:54:17;-1.60;99.90
18225;DHT22;9237;48.590;8.854;2024-03-08T04:56:45;-1.50;99.90
18225;DHT22;9237;48.590;8.854;2024-03-08T04:59:12;-1.50;99.90
18225;DHT22;9237;48.590;8.854;2024-03-08T05:01:39;-1.70;99.90
18225;DHT22;9237;48.590;8.854;2024-03-08T05:04:06;-1.80;99.90
18225;DHT22;9237;48.590;8.854;2024-03-08T05:06:32;-1.80;99.90
18225;DHT22;9237;48.590;8.854;2024-03-08T05:08:59;-1.90;99.90
18225;DHT22;9237;48.590;8.854;2024-03-08T05:11:26;-1.90;99.90
18225;DHT22;9237;48.590;8.854;2024-03-08T05:13:54;-1.90;99.90
18225;DHT22;9237;48.590;8.854;2024-03-08T05:16:21;-1.80;99.90
18225;DHT22;9237;48.590;8.854;2024-03-08T05:18:49;-1.70;99.90
18225;DHT22;9237;48.590;8.854;2024-03-08T05:21:16;-1.60;99.90
18225;DHT22;9237;48.590;8.854;2024-03-08T05:23:45;-1.50;99.90
18225;DHT22;9237;48.590;8.854;2024-03-08T05:26:12;-1.40;99.90
18225;DHT22;9237;48.590;8.854;2024-03-08T05:28:39;-1.40;99.90
18225;DHT22;9237;48.590;8.854;2024-03-08T05:31:07;-1.40;99.90
18225;DHT22;9237;48.590;8.854;2024-03-08T05:33:34;-1.40;99.90
18225;DHT22;9237;48.590;8.854;2024-03-08T05:36:01;-1.20;99.90
18225;DHT22;9237;48.590;8.854;2024-03-08T05:38:28;-1.20;99.90
18225;DHT22;9237;48.590;8.854;2024-03-08T05:40:55;-1.10;99.90
18225;DHT22;9237;48.590;8.854;2024-03-08T05:43:22;-1.00;99.90
18225;DHT22;9237;48.590;8.854;2024-03-08T05:45:50;-0.90;99.90
18225;DHT22;9237;48.590;8.854;2024-03-08T05:48:18;-0.80;99.90
18225;DHT22;9237;48.590;8.854;2024-03-08T05:50:45;-0.70;99.90
18225;DHT22;9237;48.590;8.854;2024-03-08T05:53:12;-0.60;99.90
18225;DHT22;9237;48.590;8.854;2024-03-08T05:55:39;-0.50;99.90
18225;DHT22;9237;48.590;8.854;2024-03-08T05:58:06;-0.40;99.90
18225;DHT22;9237;48.590;8.854;2024-03-08T06:00:33;-0.40;99.90
18225;DHT22;9237;48.590;8.854;2024-03-08T06:03:02;-0.30;99.90
18225;DHT22;9237;48.590;8.854;2024-03-08T06:05:30;-0.20;99.90
18225;DHT22;9237;48.590;8.854;2024-03-08T06:07:57;-0.10;99.90
18225;DHT22;9237;48.590;8.854;2024-03-08T06:10:24;0.00;99.90
18225;DHT22;9237;48.590;8.854;2024-03-08T06:12:50;0.20;99.90
18225;DHT22;9237;48.590;8.854;2024-03-08T06:15:17;0.30;99.90
18225;DHT22;9237;48.590;8.854;2024-03-08T06:17:46;0.50;99.90
18225;DHT22;9237;48.590;8.854;2024-03-08T06:20:13;0.50;99.90
18225;DHT22;9237;48.590;8.854;2024-03-08T06:22:42;0.50;99.90
18225;DHT22;9237;48.590;8.854;2024-03-08T06:25:10;0.50;99.90
18225;DHT22;9237;48.590;8.854;2024-03-08T06:27:39;0.50;99.90
18225;DHT22;9237;48.590;8.854;2024-03-08T06:30:08;0.50;99.90
18225;DHT22;9237;48.590;8.854;2024-03-08T06:32:36;0.50;99.90
18225;DHT22;9237;48.590;8.854;2024-03-08T06:35:03;0.50;99.90
18225;DHT22;9237;48.590;8.854;2024-03-08T06:37:31;0.60;99.90
18225;DHT22;9237;48.590;8.854;2024-03-08T06:40:00;0.60;99.90
18225;DHT22;9237;48.590;8.854;2024-03-08T06:42:28;0.70;99.90
18225;DHT22;9237;48.590;8.854;2024-03-08T06:44:59;0.70;99.90
18225;DHT22;9237;48.590;8.854;2024-03-08T06:47:30;0.70;99.90
18225;DHT22;9237;48.590;8.854;2024-03-08T06:49:57;0.80;99.90
18225;DHT22;9237;48.590;8.854;2024-03-08T06:52:24;0.90;99.90
18225;DHT22;9237;48.590;8.854;2024-03-08T06:54:50;0.90;99.90
18225;DHT22;9237;48.590;8.854;2024-03-08T06:57:19;0.90;99.90
18225;DHT22;9237;48.590;8.854;2024-03-08T06:59:47;1.00;99.90
18225;DHT22;9237;48.590;8.854;2024-03-08T07:02:14;1.10;99.90
18225;DHT22;9237;48.590;8.854;2024-03-08T07:04:41;1.10;99.90
18225;DHT22;9237;48.590;8.854;2024-03-08T07:07:08;1.10;99.90
18225;DHT22;9237;48.590;8.854;2024-03-08T07:09:35;1.20;99.90
18225;DHT22;9237;48.590;8.854;2024-03-08T07:12:02;1.20;99.90
18225;DHT22;9237;48.590;8.854;2024-03-08T07:14:30;1.30;99.90
18225;DHT22;9237;48.590;8.854;2024-03-08T07:16:57;1.30;99.90
18225;DHT22;9237;48.590;8.854;2024-03-08T07:19:24;1.30;99.90
18225;DHT22;9237;48.590;8.854;2024-03-08T07:21:51;1.40;99.90
18225;DHT22;9237;48.590;8.854;2024-03-08T07:24:17;1.40;99.90
18225;DHT22;9237;48.590;8.854;2024-03-08T07:27:05;1.40;99.90
18225;DHT22;9237;48.590;8.854;2024-03-08T07:29:33;1.50;99.90
18225;DHT22;9237;48.590;8.854;2024-03-08T07:32:00;1.60;99.90
18225;DHT22;9237;48.590;8.854;2024-03-08T07:34:38;1.70;99.90
18225;DHT22;9237;48.590;8.854;2024-03-08T07:37:06;1.70;99.90
18225;DHT22;9237;48.590;8.854;2024-03-08T07:39:37;1.70;99.90
18225;DHT22;9237;48.590;8.854;2024-03-08T07:42:04;1.80;99.90
18225;DHT22;9237;48.590;8.854;2024-03-08T07:44:32;1.90;99.90
18225;DHT22;9237;48.590;8.854;2024-03-08T07:46:59;2.00;99.90
18225;DHT22;9237;48.590;8.854;2024-03-08T07:49:26;2.10;99.90
18225;DHT22;9237;48.590;8.854;2024-03-08T07:51:52;2.20;99.90
18225;DHT22;9237;48.590;8.854;2024-03-08T07:54:19;2.20;99.90
18225;DHT22;9237;48.590;8.854;2024-03-08T07:56:46;2.20;99.90
18225;DHT22;9237;48.590;8.854;2024-03-08T07:59:13;2.30;99.90
18225;DHT22;9237;48.590;8.854;2024-03-08T08:01:41;2.40;99.90
18225;DHT22;9237;48.590;8.854;2024-03-08T08:04:09;2.40;99.90
18225;DHT22;9237;48.590;8.854;2024-03-08T08:06:38;2.50;99.90
18225;DHT22;9237;48.590;8.854;2024-03-08T08:09:06;2.50;99.90
18225;DHT22;9237;48.590;8.854;2024-03-08T08:11:39;2.50;99.90
18225;DHT22;9237;48.590;8.854;2024-03-08T08:14:08;2.70;99.90
18225;DHT22;9237;48.590;8.854;2024-03-08T08:16:36;2.80;99.90
18225;DHT22;9237;48.590;8.854;2024-03-08T08:19:04;2.80;99.90
18225;DHT22;9237;48.590;8.854;2024-03-08T08:21:33;2.90;99.90
18225;DHT22;9237;48.590;8.854;2024-03-08T08:24:00;3.10;99.90
18225;DHT22;9237;48.590;8.854;2024-03-08T08:26:28;3.10;99.90
18225;DHT22;9237;48.590;8.854;2024-03-08T08:28:55;3.10;99.90
18225;DHT22;9237;48.590;8.854;2024-03-08T08:31:22;3.20;99.90
18225;DHT22;9237;48.590;8.854;2024-03-08T08:33:49;3.20;99.90
18225;DHT22;9237;48.590;8.854;2024-03-08T08:36:19;3.20;99.90
18225;DHT22;9237;48.590;8.854;2024-03-08T08:38:45;3.20;99.90
18225;DHT22;9237;48.590;8.854;2024-03-08T08:41:12;3.20;99.90
18225;DHT22;9237;48.590;8.854;2024-03-08T08:43:39;3.20;99.90
18225;DHT22;9237;48.590;8.854;2024-03-08T08:46:09;3.30;99.90
18225;DHT22;9237;48.590;8.854;2024-03-08T08:48:38;3.30;99.90
18225;DHT22;9237;48.590;8.854;2024-03-08T08:51:06;3.40;99.90
18225;DHT22;9237;48.590;8.854;2024-03-08T08:53:39;3.40;99.90
18225;DHT22;9237;48.590;8.854;2024-03-08T08:56:09;3.40;99.90
18225;DHT22;9237;48.590;8.854;2024-03-08T08:58:38;3.50;99.90
18225;DHT22;9237;48.590;8.854;2024-03-08T09:01:05;3.60;99.90
18225;DHT22;9237;48.590;8.854;2024-03-08T09:03:33;3.70;99.90
18225;DHT22;9237;48.590;8.854;2024-03-08T09:06:00;3.70;99.90
18225;DHT22;9237;48.590;8.854;2024-03-08T09:08:28;3.80;99.90
18225;DHT22;9237;48.590;8.854;2024-03-08T09:10:56;3.90;99.90
18225;DHT22;9237;48.590;8.854;2024-03-08T09:13:25;3.90;99.90
18225;DHT22;9237;48.590;8.854;2024-03-08T09:15:52;3.90;99.90
18225;DHT22;9237;48.590;8.854;2024-03-08T09:18:19;4.00;99.90
18225;DHT22;9237;48.590;8.854;2024-03-08T09:20:45;4.00;99.90
18225;DHT22;9237;48.590;8.854;2024-03-08T09:23:12;3.80;99.90
18225;DHT22;9237;48.590;8.854;2024-03-08T09:25:38;3.80;99.90
18225;DHT22;9237;48.590;8.854;2024-03-08T09:28:06;3.80;99.90
18225;DHT22;9237;48.590;8.854;2024-03-08T09:30:34;3.90;99.90
18225;DHT22;9237;48.590;8.854;2024-03-08T09:33:02;4.00;99.90
18225;DHT22;9237;48.590;8.854;2024-03-08T09:35:29;3.90;99.90
18225;DHT22;9237;48.590;8.854;2024-03-08T09:37:56;4.00;99.90
18225;DHT22;9237;48.590;8.854;2024-03-08T09:40:23;4.00;99.90
18225;DHT22;9237;48.590;8.854;2024-03-08T09:42:51;4.20;99.90
18225;DHT22;9237;48.590;8.854;2024-03-08T09:45:20;4.30;99.90
18225;DHT22;9237;48.590;8.854;2024-03-08T09:47:48;4.30;99.90
18225;DHT22;9237;48.590;8.854;2024-03-08T09:50:15;4.30;99.90
18225;DHT22;9237;48.590;8.854;2024-03-08T09:52:47;4.30;99.90
18225;DHT22;9237;48.590;8.854;2024-03-08T09:55:14;4.30;99.90
18225;DHT22;9237;48.590;8.854;2024-03-08T09:57:43;4.20;99.90
18225;DHT22;9237;48.590;8.854;2024-03-08T10:00:32;4.30;99.90
18225;DHT22;9237;48.590;8.854;2024-03-08T10:03:01;4.30;99.90
18225;DHT22;9237;48.590;8.854;2024-03-08T10:05:27;4.30;99.90
18225;DHT22;9237;48.590;8.854;2024-03-08T10:07:55;4.40;99.90
18225;DHT22;9237;48.590;8.854;2024-03-08T10:10:21;4.40;99.90
18225;DHT22;9237;48.590;8.854;2024-03-08T10:12:48;4.40;99.90
18225;DHT22;9237;48.590;8.854;2024-03-08T10:15:16;4.30;99.90
18225;DHT22;9237;48.590;8.854;2024-03-08T10:17:44;4.30;99.90
18225;DHT22;9237;48.590;8.854;2024-03-08T10:20:14;4.50;99.90
18225;DHT22;9237;48.590;8.854;2024-03-08T10:22:41;4.40;99.90
18225;DHT22;9237;48.590;8.854;2024-03-08T10:25:10;4.20;99.90
18225;DHT22;9237;48.590;8.854;2024-03-08T10:27:38;3.90;99.90
18225;DHT22;9237;48.590;8.854;2024-03-08T10:30:06;3.90;99.90
18225;DHT22;9237;48.590;8.854;2024-03-08T10:32:35;4.00;99.90
18225;DHT22;9237;48.590;8.854;2024-03-08T10:35:03;4.00;99.90
18225;DHT22;9237;48.590;8.854;2024-03-08T10:37:30;4.20;99.90
18225;DHT22;9237;48.590;8.854;2024-03-08T10:40:02;4.50;99.90
18225;DHT22;9237;48.590;8.854;2024-03-08T10:42:40;4.70;99.90
18225;DHT22;9237;48.590;8.854;2024-03-08T10:45:15;4.70;99.90
18225;DHT22;9237;48.590;8.854;2024-03-08T10:47:49;4.80;99.90
18225;DHT22;9237;48.590;8.854;2024-03-08T10:50:22;4.80;99.90
18225;DHT22;9237;48.590;8.854;2024-03-08T10:52:51;5.00;99.90
18225;DHT22;9237;48.590;8.854;2024-03-08T10:55:19;4.90;99.90
18225;DHT22;9237;48.590;8.854;2024-03-08T10:57:46;4.90;99.90
18225;DHT22;9237;48.590;8.854;2024-03-08T11:00:14;4.80;99.90
18225;DHT22;9237;48.590;8.854;2024-03-08T11:02:43;5.00;99.90
18225;DHT22;9237;48.590;8.854;2024-03-08T11:05:10;5.20;99.90
18225;DHT22;9237;48.590;8.854;2024-03-08T11:07:43;5.20;99.90
18225;DHT22;9237;48.590;8.854;2024-03-08T11:10:19;5.30;99.90
18225;DHT22;9237;48.590;8.854;2024-03-08T11:12:46;5.30;99.90
18225;DHT22;9237;48.590;8.854;2024-03-08T11:15:14;5.10;99.90
18225;DHT22;9237;48.590;8.854;2024-03-08T11:17:47;5.20;99.90
18225;DHT22;9237;48.590;8.854;2024-03-08T11:20:16;5.30;99.90
18225;DHT22;9237;48.590;8.854;2024-03-08T11:22:49;5.50;99.90
18225;DHT22;9237;48.590;8.854;2024-03-08T11:25:34;5.80;99.90
18225;DHT22;9237;48.590;8.854;2024-03-08T11:28:16;6.20;99.90
18225;DHT22;9237;48.590;8.854;2024-03-08T11:30:44;6.40;99.90
18225;DHT22;9237;48.590;8.854;2024-03-08T11:33:13;6.70;99.90
18225;DHT22;9237;48.590;8.854;2024-03-08T11:35:40;6.80;99.90
18225;DHT22;9237;48.590;8.854;2024-03-08T11:38:13;7.00;99.90
18225;DHT22;9237;48.590;8.854;2024-03-08T11:40:46;7.10;99.90
18225;DHT22;9237;48.590;8.854;2024-03-08T11:43:16;7.20;99.90
18225;DHT22;9237;48.590;8.854;2024-03-08T11:45:43;7.40;99.90
18225;DHT22;9237;48.590;8.854;2024-03-08T11:48:10;7.40;99.90
18225;DHT22;9237;48.590;8.854;2024-03-08T11:50:38;7.20;99.90
18225;DHT22;9237;48.590;8.854;2024-03-08T11:53:06;7.40;99.90
18225;DHT22;9237;48.590;8.854;2024-03-08T11:55:34;7.80;99.90
18225;DHT22;9237;48.590;8.854;2024-03-08T11:58:02;8.10;99.90
18225;DHT22;9237;48.590;8.854;2024-03-08T12:00:30;8.20;99.90
18225;DHT22;9237;48.590;8.854;2024-03-08T12:03:04;8.20;99.90
18225;DHT22;9237;48.590;8.854;2024-03-08T12:05:32;8.30;99.90
18225;DHT22;9237;48.590;8.854;2024-03-08T12:07:59;8.00;99.90
18225;DHT22;9237;48.590;8.854;2024-03-08T12:10:27;7.90;99.90
18225;DHT22;9237;48.590;8.854;2024-03-08T12:12:58;7.90;99.90
18225;DHT22;9237;48.590;8.854;2024-03-08T12:15:26;8.00;99.90
18225;DHT22;9237;48.590;8.854;2024-03-08T12:17:54;7.90;99.90
18225;DHT22;9237;48.590;8.854;2024-03-08T12:20:23;7.60;99.90
18225;DHT22;9237;48.590;8.854;2024-03-08T12:22:51;7.80;99.90
18225;DHT22;9237;48.590;8.854;2024-03-08T12:25:19;7.60;99.90
18225;DHT22;9237;48.590;8.854;2024-03-08T12:27:46;7.90;99.90
18225;DHT22;9237;48.590;8.854;2024-03-08T12:30:20;7.90;99.90
18225;DHT22;9237;48.590;8.854;2024-03-08T12:32:54;7.30;99.90
18225;DHT22;9237;48.590;8.854;2024-03-08T12:35:23;7.40;99.90
18225;DHT22;9237;48.590;8.854;2024-03-08T12:37:52;7.70;99.90
18225;DHT22;9237;48.590;8.854;2024-03-08T12:40:25;7.90;99.90
18225;DHT22;9237;48.590;8.854;2024-03-08T12:42:53;8.00;99.90
18225;DHT22;9237;48.590;8.854;2024-03-08T12:45:21;8.10;99.90
18225;DHT22;9237;48.590;8.854;2024-03-08T12:47:49;8.10;99.90
18225;DHT22;9237;48.590;8.854;2024-03-08T12:50:16;8.20;99.90
18225;DHT22;9237;48.590;8.854;2024-03-08T12:52:43;8.20;99.90
18225;DHT22;9237;48.590;8.854;2024-03-08T12:55:10;8.20;99.90
18225;DHT22;9237;48.590;8.854;2024-03-08T12:57:38;8.40;99.90
18225;DHT22;9237;48.590;8.854;2024-03-08T13:00:05;8.40;99.90
18225;DHT22;9237;48.590;8.854;2024-03-08T13:02:39;8.60;99.90
18225;DHT22;9237;48.590;8.854;2024-03-08T13:05:07;8.70;99.90
18225;DHT22;9237;48.590;8.854;2024-03-08T13:07:36;8.80;99.90
18225;DHT22;9237;48.590;8.854;2024-03-08T13:10:04;8.90;99.90
18225;DHT22;9237;48.590;8.854;2024-03-08T13:12:32;9.00;99.90
18225;DHT22;9237;48.590;8.854;2024-03-08T13:15:01;9.00;99.90
18225;DHT22;9237;48.590;8.854;2024-03-08T13:17:30;9.30;99.90
18225;DHT22;9237;48.590;8.854;2024-03-08T13:19:58;9.50;99.90
18225;DHT22;9237;48.590;8.854;2024-03-08T13:22:25;9.40;99.90
18225;DHT22;9237;48.590;8.854;2024-03-08T13:24:53;9.20;99.90
18225;DHT22;9237;48.590;8.854;2024-03-08T13:27:20;9.10;99.90
18225;DHT22;9237;48.590;8.854;2024-03-08T13:29:47;9.10;99.90
18225;DHT22;9237;48.590;8.854;2024-03-08T13:32:15;9.70;99.90
18225;DHT22;9237;48.590;8.854;2024-03-08T13:34:42;10.50;99.90
18225;DHT22;9237;48.590;8.854;2024-03-08T13:37:11;11.70;99.90
18225;DHT22;9237;48.590;8.854;2024-03-08T13:39:41;12.90;99.90
18225;DHT22;9237;48.590;8.854;2024-03-08T13:42:10;14.40;99.90
18225;DHT22;9237;48.590;8.854;2024-03-08T13:44:39;15.30;99.90
18225;DHT22;9237;48.590;8.854;2024-03-08T13:47:07;14.40;99.90
18225;DHT22;9237;48.590;8.854;2024-03-08T13:49:33;14.80;99.90
18225;DHT22;9237;48.590;8.854;2024-03-08T13:52:02;15.60;99.90
18225;DHT22;9237;48.590;8.854;2024-03-08T13:54:31;15.70;99.90
18225;DHT22;9237;48.590;8.854;2024-03-08T13:56:58;15.40;99.90
18225;DHT22;9237;48.590;8.854;2024-03-08T13:59:24;14.70;99.90
18225;DHT22;9237;48.590;8.854;2024-03-08T14:01:55;15.50;99.90
18225;DHT22;9237;48.590;8.854;2024-03-08T14:04:23;15.20;99.90
18225;DHT22;9237;48.590;8.854;2024-03-08T14:06:50;15.80;99.90
18225;DHT22;9237;48.590;8.854;2024-03-08T14:09:22;16.20;99.90
18225;DHT22;9237;48.590;8.854;2024-03-08T14:11:51;16.40;99.90
18225;DHT22;9237;48.590;8.854;2024-03-08T14:14:20;15.80;99.90
18225;DHT22;9237;48.590;8.854;2024-03-08T14:16:48;15.50;99.90
18225;DHT22;9237;48.590;8.854;2024-03-08T14:19:18;15.40;99.90
18225;DHT22;9237;48.590;8.854;2024-03-08T14:21:45;14.80;99.90
18225;DHT22;9237;48.590;8.854;2024-03-08T14:24:14;15.40;99.90
18225;DHT22;9237;48.590;8.854;2024-03-08T14:26:41;15.70;99.90
18225;DHT22;9237;48.590;8.854;2024-03-08T14:29:09;15.50;99.90
18225;DHT22;9237;48.590;8.854;2024-03-08T14:31:36;16.30;99.90
18225;DHT22;9237;48.590;8.854;2024-03-08T14:34:03;16.40;99.90
18225;DHT22;9237;48.590;8.854;2024-03-08T14:36:30;16.80;99.90
18225;DHT22;9237;48.590;8.854;2024-03-08T14:38:57;15.60;99.90
18225;DHT22;9237;48.590;8.854;2024-03-08T14:41:24;16.00;99.90
18225;DHT22;9237;48.590;8.854;2024-03-08T14:43:52;16.00;99.90
18225;DHT22;9237;48.590;8.854;2024-03-08T14:46:20;15.90;99.90
18225;DHT22;9237;48.590;8.854;2024-03-08T14:48:49;16.60;99.90
18225;DHT22;9237;48.590;8.854;2024-03-08T14:51:17;16.80;99.90
18225;DHT22;9237;48.590;8.854;2024-03-08T14:53:47;16.50;99.90
18225;DHT22;9237;48.590;8.854;2024-03-08T14:56:15;17.20;99.90
18225;DHT22;9237;48.590;8.854;2024-03-08T14:58:43;17.40;99.90
18225;DHT22;9237;48.590;8.854;2024-03-08T15:01:10;17.70;99.90
18225;DHT22;9237;48.590;8.854;2024-03-08T15:03:40;17.30;99.90
18225;DHT22;9237;48.590;8.854;2024-03-08T15:06:08;15.60;99.80
18225;DHT22;9237;48.590;8.854;2024-03-08T15:08:35;16.40;99.90
18225;DHT22;9237;48.590;8.854;2024-03-08T15:11:03;17.50;99.90
18225;DHT22;9237;48.590;8.854;2024-03-08T15:13:31;17.60;99.60
18225;DHT22;9237;48.590;8.854;2024-03-08T15:16:05;17.80;98.90
18225;DHT22;9237;48.590;8.854;2024-03-08T15:18:32;18.10;97.90
18225;DHT22;9237;48.590;8.854;2024-03-08T15:21:03;18.00;96.90
18225;DHT22;9237;48.590;8.854;2024-03-08T15:23:33;17.10;95.70
18225;DHT22;9237;48.590;8.854;2024-03-08T15:26:00;17.50;95.00
18225;DHT22;9237;48.590;8.854;2024-03-08T15:28:27;17.50;94.80
18225;DHT22;9237;48.590;8.854;2024-03-08T15:31:02;16.00;93.60
18225;DHT22;9237;48.590;8.854;2024-03-08T15:33:32;14.70;93.70
18225;DHT22;9237;48.590;8.854;2024-03-08T15:35:59;14.50;94.20
18225;DHT22;9237;48.590;8.854;2024-03-08T15:38:30;14.60;93.70
18225;DHT22;9237;48.590;8.854;2024-03-08T15:40:57;14.20;92.60
18225;DHT22;9237;48.590;8.854;2024-03-08T15:43:24;14.10;92.30
18225;DHT22;9237;48.590;8.854;2024-03-08T15:45:51;14.10;92.60
18225;DHT22;9237;48.590;8.854;2024-03-08T15:48:20;13.50;92.60
18225;DHT22;9237;48.590;8.854;2024-03-08T15:50:47;12.90;92.60
18225;DHT22;9237;48.590;8.854;2024-03-08T15:53:15;13.20;92.80
18225;DHT22;9237;48.590;8.854;2024-03-08T15:55:43;12.50;93.00
18225;DHT22;9237;48.590;8.854;2024-03-08T15:58:12;12.20;93.20
18225;DHT22;9237;48.590;8.854;2024-03-08T16:00:39;12.60;92.90
18225;DHT22;9237;48.590;8.854;2024-03-08T16:03:12;12.70;92.30